Estación Meteorológica Peña el Pijo (Robertgarden) [ 08/17/18 05:39:13 CEST ]

Fecha Hora Presion(HPa) Temp (°C) Humedad % Rocio (°C) Viento ( m/s) Direccion Lluvia 1Hora(mm) Lluvia 24H(mm) LLuvia Total(mm)
2018-Apr-19 01:01:51 1015.300 7.2 66 1.2         203.05
2018-Apr-19 02:01:53 1015.100 6.1 70 1.1         203.05
2018-Apr-19 03:03:02 1014.700 5.3 73 0.8         203.05
2018-Apr-19 04:01:41 1014.200 4.8 76 0.9         203.05
2018-Apr-19 05:01:41 1013.500 4.3 78 0.8         203.05
2018-Apr-19 06:06:09 1013.200 3.5 79 0.2         203.05
2018-Apr-19 07:01:49 1013.300 3.3 81 0.4         203.05
2018-Apr-19 08:01:31 1013.400 3.0 81 0.1         203.05
2018-Apr-19 09:01:45 1013.300 7.2 84 4.7         203.05
2018-Apr-19 10:01:44 1013.100 12.4 66 6.2         203.05
2018-Apr-19 11:01:31 1013.000 17.8 49 6.9 0.7 SSE     203.05
2018-Apr-19 12:01:36 1012.900 19.3 42 6.0 1.8 S     203.05
2018-Apr-19 13:01:54 1012.700 20.6 40 6.5         203.05
2018-Apr-19 14:01:55 1012.400 19.7 39 5.3         203.05
2018-Apr-19 15:01:24 1011.700 20.3 40 6.3 1.7 S     203.05
2018-Apr-19 16:01:48 1011.400 20.8 38 5.9 1.9 WSW     203.05
2018-Apr-19 17:01:50 1011.100 19.9 39 5.5         203.05
2018-Apr-19 18:01:43 1011.200 18.9 44 6.3         203.05
2018-Apr-19 19:01:43 1011.400 17.6 45 5.4 0.6 SSW     203.05
2018-Apr-19 20:01:45 1011.800 14.9 47 3.6         203.05
2018-Apr-19 21:02:05 1012.000 13.3 59 5.4         203.05
2018-Apr-19 22:01:49 1012.400 11.8 65 5.4         203.05
2018-Apr-19 23:01:39 1012.500 10.5 67 4.6         203.05

Temperatura Máxima:20°    Temperatura Mínima:
Presión Máxima:1015.300 Hpa    Presión Mínima:1011.100 Hpa


Volver